West Chenango, New York
Current Conditions -  °F | °C
As of 11:07 AM on Wednesday 26 Nov 2014 (Local Time) from KBGM Reporting Station
Moderate Snow Moderate Snow  
Wind Chill: -4°   Ceiling: 900
Heat Index: -1°   Visibility: 0.25mi
Dew Point: -3°   Wind: 5mph
Humidity: 88%   Direction: 40°NE
Pressure: 30.1"   Gusts: NA
Location:  42.1759°N, 75.9402°W
Report Text: KBGM 261607Z 04004KT 1/4SM SN FZFG VV009 M01/M03 A3010 RMK AO2 P0002 T10111028 RVRNO
Loading
Personal Weather Stations






























Interactive Weather Map New forecast layout! Learn more

10-Day Weather Forecast

Advertisements
Track Severe Weather on mobile